createdAt,value
2022-10-05T00:05:27.319Z,101618.28
2022-10-05T00:15:30.493Z,101624.34
2022-10-05T00:25:34.905Z,101590.63
2022-10-05T00:35:38.040Z,101601.03
2022-10-05T00:45:46.403Z,101590.69
2022-10-05T00:55:57.923Z,101608.03
2022-10-05T01:06:12.988Z,101598.50
2022-10-05T01:16:22.303Z,101575.16
2022-10-05T01:26:44.862Z,101565.66
2022-10-05T01:37:00.300Z,101563.88
2022-10-05T01:47:08.885Z,101553.50
2022-10-05T01:57:22.335Z,101546.59
2022-10-05T02:07:30.074Z,101521.47
2022-10-05T02:17:39.488Z,101511.97
2022-10-05T02:27:49.682Z,101506.72
2022-10-05T02:38:11.858Z,101498.06
2022-10-05T02:48:25.935Z,101472.97
2022-10-05T02:58:38.198Z,101477.34
2022-10-05T03:08:45.824Z,101465.22
2022-10-05T03:19:03.744Z,101461.84
2022-10-05T03:29:18.225Z,101459.28
2022-10-05T03:39:31.751Z,101457.56
2022-10-05T03:49:49.119Z,101454.97
2022-10-05T04:00:00.790Z,101462.75
2022-10-05T04:10:14.454Z,101456.66
2022-10-05T04:20:23.928Z,101464.47
2022-10-05T04:30:28.226Z,101457.59
2022-10-05T04:40:49.183Z,101442.03
2022-10-05T04:51:04.107Z,101432.47
2022-10-05T05:01:24.391Z,101437.63
2022-10-05T05:11:35.259Z,101431.53
2022-10-05T05:21:46.769Z,101422.00
2022-10-05T05:31:57.870Z,101423.78
2022-10-05T05:42:12.958Z,101415.16
2022-10-05T05:52:23.458Z,101412.56
2022-10-05T06:02:32.897Z,101398.69
2022-10-05T06:12:39.607Z,101405.63
2022-10-05T06:22:47.136Z,101401.25
2022-10-05T06:33:09.230Z,101399.50
2022-10-05T06:43:42.614Z,101396.00
2022-10-05T06:54:04.083Z,101407.16
2022-10-05T07:04:26.998Z,101405.34
2022-10-05T07:14:41.144Z,101401.72
2022-10-05T07:24:58.373Z,101399.84
2022-10-05T07:35:30.643Z,101407.41
2022-10-05T07:45:46.991Z,101411.53
2022-10-05T07:55:54.846Z,101410.44
2022-10-05T08:06:02.702Z,101399.03
2022-10-05T08:16:12.718Z,101396.13
2022-10-05T08:26:26.001Z,101380.22
2022-10-05T08:36:53.026Z,101377.22
2022-10-05T08:47:16.347Z,101371.78
2022-10-05T08:57:53.594Z,101361.97
2022-10-05T09:08:31.168Z,101357.81
2022-10-05T09:19:06.417Z,101348.84
2022-10-05T09:29:34.287Z,101348.34
2022-10-05T09:39:56.739Z,101344.38
2022-10-05T09:50:30.820Z,101341.50
2022-10-05T10:00:55.563Z,101328.22
2022-10-05T10:11:19.473Z,101324.81
2022-10-05T10:21:46.923Z,101312.44
2022-10-05T10:32:10.870Z,101293.94
2022-10-05T10:42:32.520Z,101284.63
2022-10-05T10:52:57.664Z,101281.75
2022-10-05T11:03:39.175Z,101255.03
2022-10-05T11:14:02.754Z,101247.59
2022-10-05T11:24:39.003Z,101257.81
2022-10-05T11:35:14.489Z,101229.78
2022-10-05T11:45:23.471Z,101198.28
2022-10-05T11:55:33.956Z,101193.41
2022-10-05T12:05:47.664Z,101165.69
2022-10-05T12:15:58.720Z,101157.31
2022-10-05T12:26:05.052Z,101148.22
2022-10-05T12:36:16.089Z,101145.41
2022-10-05T12:46:42.506Z,101142.28
2022-10-05T12:57:00.769Z,101145.03
2022-10-05T13:07:31.017Z,101140.75
2022-10-05T13:17:42.320Z,101135.31
2022-10-05T13:27:52.739Z,101138.78
2022-10-05T13:38:04.489Z,101152.75
2022-10-05T13:48:19.463Z,101151.16
2022-10-05T13:58:51.658Z,101163.19
2022-10-05T14:08:58.316Z,101152.56
2022-10-05T14:19:20.249Z,101174.75
2022-10-05T14:29:26.343Z,101181.56
2022-10-05T14:39:35.700Z,101193.34
2022-10-05T14:50:10.840Z,101208.41
2022-10-05T15:00:17.417Z,101250.69
2022-10-05T15:10:32.403Z,101282.03
2022-10-05T15:20:45.683Z,101298.31
2022-10-05T15:31:11.386Z,101286.72
2022-10-05T15:41:24.829Z,101276.50
2022-10-05T15:51:40.928Z,101268.38
2022-10-05T16:01:53.088Z,101280.91
2022-10-05T16:12:10.319Z,101286.16
2022-10-05T16:22:26.500Z,101294.31
2022-10-05T16:32:34.887Z,101303.41
2022-10-05T16:42:56.370Z,101315.59
2022-10-05T16:53:04.887Z,101325.25
2022-10-05T17:03:21.200Z,101340.91
2022-10-05T17:13:52.229Z,101340.13
2022-10-05T17:24:02.133Z,101328.84
2022-10-05T17:34:26.399Z,101334.94
2022-10-05T17:44:30.927Z,101353.19
2022-10-05T17:55:07.684Z,101355.69
2022-10-05T18:05:23.375Z,101368.69
2022-10-05T18:15:48.834Z,101380.00
2022-10-05T18:25:57.427Z,101384.25
2022-10-05T18:36:08.197Z,101387.69
2022-10-05T18:46:24.319Z,101398.00
2022-10-05T18:56:35.113Z,101397.94
2022-10-05T19:06:49.610Z,101414.16
2022-10-05T19:16:59.994Z,101431.56
2022-10-05T19:27:10.719Z,101441.78
2022-10-05T19:37:20.932Z,101463.72
2022-10-05T19:47:40.882Z,101511.78
2022-10-05T19:57:48.784Z,101545.28
2022-10-05T20:07:53.214Z,101540.53
2022-10-05T20:18:13.711Z,101558.84
2022-10-05T20:28:31.671Z,101583.09
2022-10-05T20:38:40.624Z,101612.59
2022-10-05T20:48:45.943Z,101636.03
2022-10-05T20:58:49.045Z,101651.66
2022-10-05T21:08:54.363Z,101688.94
2022-10-05T21:18:57.402Z,101751.16
2022-10-05T21:29:03.242Z,101774.06
2022-10-05T21:39:06.286Z,101775.09
2022-10-05T21:49:10.976Z,101784.63
2022-10-05T21:59:18.750Z,101802.78
2022-10-05T22:09:23.118Z,101815.78
2022-10-05T22:19:26.147Z,101844.31
2022-10-05T22:29:30.654Z,101859.81
2022-10-05T22:39:34.134Z,101887.41
2022-10-05T22:49:38.398Z,101914.13
2022-10-05T22:59:41.338Z,101928.75
2022-10-05T23:09:45.669Z,101940.81
2022-10-05T23:19:48.573Z,101950.16
2022-10-05T23:29:52.914Z,101971.59
2022-10-05T23:39:55.841Z,101997.44
2022-10-05T23:50:00.646Z,102018.97
